Time;durP1;ratioP1;P1;durP2;ratioP2;P2;SDS_P1;SDS_P2;PMS_P1;PMS_P2;Temp;Humidity;BMP_temperature;BMP_pressure;BME280_temperature;BME280_humidity;BME280_pressure;Samples;Min_cycle;Max_cycle;Signal;HPM_P1;HPM_P2
2023/02/13 00:01:34;;;;;;;;;;;-0.90;99.90;;;;;;5070718;28;19916;-76
2023/02/13 00:03:59;;;;;;;;;;;-1.00;99.90;;;;;;5069298;28;19908;-78
2023/02/13 00:06:25;;;;;;;;;;;-0.90;99.90;;;;;;5070580;28;19943;-77
2023/02/13 00:08:50;;;;;;;;;;;-0.90;99.90;;;;;;5069140;28;19954;-78
2023/02/13 00:11:16;;;;;;;;;;;-1.00;99.90;;;;;;5069300;28;20007;-76
2023/02/13 00:13:41;;;;;;;;;;;-1.00;99.90;;;;;;5070350;28;20017;-77
2023/02/13 00:16:08;;;;;;;;;;;-1.00;99.90;;;;;;5069156;28;20410;-77
2023/02/13 00:18:35;;;;;;;;;;;-1.00;99.90;;;;;;5069620;28;19908;-76
2023/02/13 00:21:05;;;;;;;;;;;-1.00;99.90;;;;;;5070308;28;19920;-77
2023/02/13 00:23:31;;;;;;;;;;;-1.00;99.90;;;;;;5070568;28;19931;-78
2023/02/13 00:25:57;;;;;;;;;;;-1.00;99.90;;;;;;5070447;28;20560;-77
2023/02/13 00:28:23;;;;;;;;;;;-1.00;99.90;;;;;;5070007;28;20407;-77
2023/02/13 00:30:48;;;;;;;;;;;-1.00;99.90;;;;;;5069894;28;19908;-76
2023/02/13 00:33:14;;;;;;;;;;;-1.00;99.90;;;;;;5068713;28;19958;-78
2023/02/13 00:35:39;;;;;;;;;;;-1.00;99.90;;;;;;5068884;28;19908;-77
2023/02/13 00:38:05;;;;;;;;;;;-1.10;99.90;;;;;;5068934;28;19908;-77
2023/02/13 00:40:30;;;;;;;;;;;-1.10;99.90;;;;;;5069923;28;19909;-77
2023/02/13 00:42:56;;;;;;;;;;;-1.10;99.90;;;;;;5068793;28;19927;-78
2023/02/13 00:45:21;;;;;;;;;;;-1.10;99.90;;;;;;5070018;28;19915;-77
2023/02/13 00:47:47;;;;;;;;;;;-1.00;99.90;;;;;;5069457;28;19954;-77
2023/02/13 00:50:12;;;;;;;;;;;-1.10;99.90;;;;;;5069660;28;19954;-78
2023/02/13 00:52:38;;;;;;;;;;;-1.20;99.90;;;;;;5068005;28;19908;-79
2023/02/13 00:55:04;;;;;;;;;;;-1.20;99.90;;;;;;5066867;28;19915;-77
2023/02/13 00:57:30;;;;;;;;;;;-1.10;99.90;;;;;;5067125;28;19961;-77
2023/02/13 00:59:56;;;;;;;;;;;-1.20;99.90;;;;;;5067538;28;20400;-75
2023/02/13 01:02:22;;;;;;;;;;;-1.20;99.90;;;;;;5067290;28;19987;-76
2023/02/13 01:04:48;;;;;;;;;;;-1.20;99.90;;;;;;5069023;28;20480;-75
2023/02/13 01:07:13;;;;;;;;;;;-1.30;99.90;;;;;;5068880;28;20359;-75
2023/02/13 01:09:39;;;;;;;;;;;-1.30;99.90;;;;;;5067624;28;20003;-74
2023/02/13 01:12:05;;;;;;;;;;;-1.30;99.90;;;;;;5069188;28;19914;-76
2023/02/13 01:14:30;;;;;;;;;;;-1.30;99.90;;;;;;5068705;28;19948;-74
2023/02/13 01:16:56;;;;;;;;;;;-1.30;99.90;;;;;;5067908;28;20685;-74
2023/02/13 01:19:22;;;;;;;;;;;-1.40;99.90;;;;;;5067900;28;20368;-73
2023/02/13 01:21:47;;;;;;;;;;;-1.50;99.90;;;;;;5068611;28;19916;-74
2023/02/13 01:24:13;;;;;;;;;;;-1.50;99.90;;;;;;5067197;28;19905;-78
2023/02/13 01:26:38;;;;;;;;;;;-1.50;99.90;;;;;;5067535;28;19931;-75
2023/02/13 01:29:04;;;;;;;;;;;-1.40;99.90;;;;;;5069019;28;19912;-78
2023/02/13 01:31:29;;;;;;;;;;;-1.40;99.90;;;;;;5067841;28;19934;-76
2023/02/13 01:33:58;;;;;;;;;;;-1.50;99.90;;;;;;5069025;28;19908;-75
2023/02/13 01:36:24;;;;;;;;;;;-1.50;99.90;;;;;;5067927;28;19908;-76
2023/02/13 01:38:54;;;;;;;;;;;-1.50;99.90;;;;;;5068955;28;19951;-76
2023/02/13 01:41:20;;;;;;;;;;;-1.60;99.90;;;;;;5068978;28;19923;-75
2023/02/13 01:43:48;;;;;;;;;;;-1.60;99.90;;;;;;5069124;28;19908;-76
2023/02/13 01:46:16;;;;;;;;;;;-1.50;99.90;;;;;;5067427;28;20282;-78
2023/02/13 01:48:42;;;;;;;;;;;-1.50;99.90;;;;;;5069066;28;19946;-77
2023/02/13 01:51:11;;;;;;;;;;;-1.50;99.90;;;;;;5069106;28;20380;-76
2023/02/13 01:54:03;;;;;;;;;;;-1.50;99.90;;;;;;5067674;28;19908;-75
2023/02/13 01:56:37;;;;;;;;;;;-1.60;99.90;;;;;;5045075;28;19926;-77
2023/02/13 01:59:06;;;;;;;;;;;-1.60;99.90;;;;;;5067263;28;19961;-76
2023/02/13 02:01:31;;;;;;;;;;;-1.70;99.90;;;;;;5068861;28;19943;-77
2023/02/13 02:04:03;;;;;;;;;;;-1.70;99.90;;;;;;5069194;28;20344;-78
2023/02/13 02:06:31;;;;;;;;;;;-1.70;99.90;;;;;;5073939;28;19911;-78
2023/02/13 02:09:00;;;;;;;;;;;-1.70;99.90;;;;;;5075430;28;20390;-75
2023/02/13 02:11:30;;;;;;;;;;;-1.70;99.90;;;;;;5075484;28;19908;-76
2023/02/13 02:13:56;;;;;;;;;;;-1.70;99.90;;;;;;5074142;28;19908;-77
2023/02/13 02:16:23;;;;;;;;;;;-1.70;99.90;;;;;;5075196;28;19955;-77
2023/02/13 02:18:48;;;;;;;;;;;-1.70;99.90;;;;;;5075182;28;19997;-76
2023/02/13 02:21:23;;;;;;;;;;;-1.70;99.90;;;;;;5073677;28;19963;-76
2023/02/13 02:23:54;;;;;;;;;;;-1.80;99.90;;;;;;5075305;28;19908;-75
2023/02/13 02:26:36;;;;;;;;;;;-1.90;99.90;;;;;;5073781;28;19904;-77
2023/02/13 02:29:05;;;;;;;;;;;-1.90;99.90;;;;;;5075201;28;19905;-75
2023/02/13 02:31:48;;;;;;;;;;;-2.00;99.90;;;;;;5073804;28;19995;-76
2023/02/13 02:34:26;;;;;;;;;;;-1.90;99.90;;;;;;5073957;28;19915;-75
2023/02/13 02:37:04;;;;;;;;;;;-2.00;99.90;;;;;;5075052;28;19946;-74
2023/02/13 02:39:34;;;;;;;;;;;-2.00;99.90;;;;;;5075036;28;19948;-76
2023/02/13 02:41:59;;;;;;;;;;;-2.00;99.90;;;;;;5075483;28;19912;-78
2023/02/13 02:44:34;;;;;;;;;;;-2.00;99.90;;;;;;5075245;28;19908;-77
2023/02/13 02:50:04;;;;;;;;;;;-2.00;99.90;;;;;;5074968;28;19911;-77
2023/02/13 02:52:49;;;;;;;;;;;-2.10;99.90;;;;;;5075091;28;19914;-76
2023/02/13 02:55:29;;;;;;;;;;;-2.10;99.90;;;;;;5043353;28;19905;-76
2023/02/13 03:06:40;;;;;;;;;;;-2.00;99.90;;;;;;5074608;28;19919;-75
2023/02/13 03:14:38;;;;;;;;;;;-1.90;99.90;;;;;;5074950;28;19979;-79
2023/02/13 03:22:58;;;;;;;;;;;-2.00;99.90;;;;;;5071728;28;20437;-76
2023/02/13 03:25:29;;;;;;;;;;;-2.00;99.90;;;;;;5071484;28;19950;-76
2023/02/13 03:30:57;;;;;;;;;;;-2.00;99.90;;;;;;5071588;28;19927;-76
2023/02/13 03:33:41;;;;;;;;;;;-2.00;99.90;;;;;;5071403;28;20003;-75
2023/02/13 03:39:02;;;;;;;;;;;-2.10;99.90;;;;;;5071179;28;19958;-77
2023/02/13 03:41:36;;;;;;;;;;;-2.00;99.90;;;;;;5070558;28;19939;-79
2023/02/13 03:44:02;;;;;;;;;;;-2.10;99.90;;;;;;5070247;28;19915;-75
2023/02/13 03:46:30;;;;;;;;;;;-2.00;99.90;;;;;;5071050;28;19905;-75
2023/02/13 03:51:50;;;;;;;;;;;-2.00;99.90;;;;;;5062180;28;19957;-74
2023/02/13 03:54:22;;;;;;;;;;;-2.00;99.90;;;;;;5070568;28;20277;-75
2023/02/13 03:59:34;;;;;;;;;;;-2.10;99.90;;;;;;5070689;28;19927;-77
2023/02/13 04:02:06;;;;;;;;;;;-2.10;99.90;;;;;;5070754;28;20400;-76
2023/02/13 04:04:37;;;;;;;;;;;-2.10;99.90;;;;;;5070729;28;19911;-75
2023/02/13 04:07:08;;;;;;;;;;;-2.00;99.90;;;;;;5069448;28;19908;-76
2023/02/13 04:09:36;;;;;;;;;;;-2.00;99.90;;;;;;5069523;28;20274;-75
2023/02/13 04:12:20;;;;;;;;;;;-2.00;99.90;;;;;;5070771;28;19991;-76
2023/02/13 04:14:48;;;;;;;;;;;-2.00;99.90;;;;;;5069523;28;19943;-76
2023/02/13 04:17:22;;;;;;;;;;;-2.00;99.90;;;;;;5070776;28;19973;-76
2023/02/13 04:19:48;;;;;;;;;;;-2.00;99.90;;;;;;5069397;28;19916;-76
2023/02/13 04:22:14;;;;;;;;;;;-2.00;99.90;;;;;;5070271;28;19916;-76
2023/02/13 04:24:39;;;;;;;;;;;-2.00;99.90;;;;;;5070761;28;19985;-76
2023/02/13 04:27:05;;;;;;;;;;;-2.10;99.90;;;;;;5068804;28;20002;-76
2023/02/13 04:29:30;;;;;;;;;;;-2.10;99.90;;;;;;5070229;28;20813;-75
2023/02/13 04:31:56;;;;;;;;;;;-2.10;99.90;;;;;;5070164;28;19917;-75
2023/02/13 04:34:21;;;;;;;;;;;-2.10;99.90;;;;;;5069853;28;19909;-75
2023/02/13 04:36:47;;;;;;;;;;;-2.10;99.90;;;;;;5070327;28;19999;-75
2023/02/13 04:39:13;;;;;;;;;;;-2.10;99.90;;;;;;5068804;28;19943;-76
2023/02/13 04:41:38;;;;;;;;;;;-2.10;99.90;;;;;;5068804;28;19966;-76
2023/02/13 04:44:04;;;;;;;;;;;-2.10;99.90;;;;;;5068838;28;20365;-76
2023/02/13 04:46:29;;;;;;;;;;;-2.10;99.90;;;;;;5069564;28;19908;-75
2023/02/13 04:48:55;;;;;;;;;;;-2.10;99.90;;;;;;5069728;28;19908;-75
2023/02/13 04:51:20;;;;;;;;;;;-2.10;99.90;;;;;;5068447;28;19908;-75
2023/02/13 04:53:46;;;;;;;;;;;-2.20;99.90;;;;;;5069782;28;19912;-75
2023/02/13 04:56:12;;;;;;;;;;;-2.20;99.90;;;;;;5069620;28;19908;-75
2023/02/13 04:58:37;;;;;;;;;;;-2.20;99.90;;;;;;5069451;28;20306;-75
2023/02/13 05:01:10;;;;;;;;;;;-2.20;99.90;;;;;;5069219;28;20547;-77
2023/02/13 05:03:35;;;;;;;;;;;-2.20;99.90;;;;;;5069508;28;19904;-76
2023/02/13 05:06:01;;;;;;;;;;;-2.20;99.90;;;;;;5069350;28;20375;-75
2023/02/13 05:08:26;;;;;;;;;;;-2.30;99.90;;;;;;5067919;28;19963;-76
2023/02/13 05:10:52;;;;;;;;;;;-2.20;99.90;;;;;;5069458;28;19943;-75
2023/02/13 05:13:20;;;;;;;;;;;-2.30;99.90;;;;;;5067878;28;19944;-75
2023/02/13 05:15:46;;;;;;;;;;;-2.30;99.90;;;;;;5069439;28;19969;-76
2023/02/13 05:18:12;;;;;;;;;;;-2.20;99.90;;;;;;5067807;28;20056;-75
2023/02/13 05:20:37;;;;;;;;;;;-2.20;99.90;;;;;;5069293;28;20393;-75
2023/02/13 05:23:21;;;;;;;;;;;-2.20;99.90;;;;;;5067788;28;19905;-75
2023/02/13 05:25:47;;;;;;;;;;;-2.20;99.90;;;;;;5067933;28;19951;-75
2023/02/13 05:30:57;;;;;;;;;;;-2.20;99.90;;;;;;5069238;28;20015;-77
2023/02/13 05:33:23;;;;;;;;;;;-2.30;99.90;;;;;;5069010;28;19991;-75
2023/02/13 05:35:48;;;;;;;;;;;-2.30;99.90;;;;;;5068839;28;19997;-76
2023/02/13 05:38:14;;;;;;;;;;;-2.40;99.90;;;;;;5068541;28;20296;-76
2023/02/13 05:40:39;;;;;;;;;;;-2.30;99.90;;;;;;5066793;28;19908;-75
2023/02/13 05:43:05;;;;;;;;;;;-2.30;99.90;;;;;;5068902;28;19970;-77
2023/02/13 05:45:30;;;;;;;;;;;-2.30;99.90;;;;;;5068965;28;19916;-76
2023/02/13 05:47:56;;;;;;;;;;;-2.20;99.90;;;;;;5068907;28;19998;-76
2023/02/13 05:50:21;;;;;;;;;;;-2.20;99.90;;;;;;5067792;28;19954;-76
2023/02/13 05:52:47;;;;;;;;;;;-2.10;99.90;;;;;;5068976;28;19931;-75
2023/02/13 05:55:12;;;;;;;;;;;-2.30;99.90;;;;;;5068008;28;20306;-75
2023/02/13 05:57:38;;;;;;;;;;;-2.30;99.90;;;;;;5067361;28;20288;-75
2023/02/13 06:00:04;;;;;;;;;;;-2.30;99.90;;;;;;5067289;28;19963;-75
2023/02/13 06:02:29;;;;;;;;;;;-2.30;99.90;;;;;;5066650;28;19916;-77
2023/02/13 06:04:55;;;;;;;;;;;-2.30;99.90;;;;;;5068655;28;19904;-75
2023/02/13 06:07:20;;;;;;;;;;;-2.30;99.90;;;;;;5068724;28;19909;-75
2023/02/13 06:09:46;;;;;;;;;;;-2.30;99.90;;;;;;5068495;28;20007;-77
2023/02/13 06:12:11;;;;;;;;;;;-2.30;99.90;;;;;;5068180;28;19909;-75
2023/02/13 06:14:37;;;;;;;;;;;-2.30;99.90;;;;;;5068614;28;20003;-76
2023/02/13 06:17:02;;;;;;;;;;;-2.20;99.90;;;;;;5068156;28;19909;-75
2023/02/13 06:19:28;;;;;;;;;;;-2.20;99.90;;;;;;5068159;28;19908;-77
2023/02/13 06:21:53;;;;;;;;;;;-2.20;99.90;;;;;;5067131;28;19916;-75
2023/02/13 06:24:19;;;;;;;;;;;-2.10;99.90;;;;;;5066484;28;19908;-74
2023/02/13 06:26:44;;;;;;;;;;;-2.10;99.90;;;;;;5068045;28;19908;-76
2023/02/13 06:29:11;;;;;;;;;;;-2.10;99.90;;;;;;5068266;28;19973;-75
2023/02/13 06:31:37;;;;;;;;;;;-2.00;99.90;;;;;;5066813;28;20334;-77
2023/02/13 06:34:03;;;;;;;;;;;-1.90;99.90;;;;;;5068087;28;20368;-75
2023/02/13 06:36:28;;;;;;;;;;;-1.90;99.90;;;;;;5066830;28;20252;-76
2023/02/13 06:38:54;;;;;;;;;;;-1.80;99.90;;;;;;5067844;28;19916;-76
2023/02/13 06:41:19;;;;;;;;;;;-1.70;99.90;;;;;;5068259;28;19972;-76
2023/02/13 06:43:45;;;;;;;;;;;-1.60;99.90;;;;;;5068302;28;19909;-77
2023/02/13 06:46:11;;;;;;;;;;;-1.40;99.90;;;;;;5066710;28;20408;-75
2023/02/13 06:48:36;;;;;;;;;;;-1.10;99.90;;;;;;5068245;28;20372;-75
2023/02/13 06:51:02;;;;;;;;;;;-0.60;99.90;;;;;;5066943;28;20329;-75
2023/02/13 06:53:27;;;;;;;;;;;0.10;99.90;;;;;;5071909;28;20007;-74
2023/02/13 06:55:54;;;;;;;;;;;0.90;99.90;;;;;;5070665;28;19915;-75
2023/02/13 06:58:23;;;;;;;;;;;1.80;99.90;;;;;;5071550;28;19915;-75
2023/02/13 07:00:49;;;;;;;;;;;2.40;99.90;;;;;;5072028;28;19972;-74
2023/02/13 07:03:15;;;;;;;;;;;3.10;99.90;;;;;;5069830;28;19911;-72
2023/02/13 07:05:41;;;;;;;;;;;3.30;99.90;;;;;;5071684;28;19904;-73
2023/02/13 07:08:07;;;;;;;;;;;3.70;99.90;;;;;;5070747;28;19914;-74
2023/02/13 07:10:32;;;;;;;;;;;4.20;99.90;;;;;;5071864;28;19908;-76
2023/02/13 07:12:58;;;;;;;;;;;4.80;99.90;;;;;;5070039;28;19991;-74
2023/02/13 07:15:23;;;;;;;;;;;5.10;99.90;;;;;;5070138;28;19908;-75
2023/02/13 07:17:56;;;;;;;;;;;5.20;99.90;;;;;;5071591;28;19954;-74
2023/02/13 07:20:21;;;;;;;;;;;5.20;99.90;;;;;;5070117;28;19912;-76
2023/02/13 07:22:47;;;;;;;;;;;5.20;99.90;;;;;;5070986;28;20262;-75
2023/02/13 07:25:12;;;;;;;;;;;5.10;99.90;;;;;;5069802;28;20023;-74
2023/02/13 07:27:38;;;;;;;;;;;5.10;99.90;;;;;;5071200;28;19905;-74
2023/02/13 07:30:04;;;;;;;;;;;5.20;99.90;;;;;;5071312;28;19916;-75
2023/02/13 07:32:29;;;;;;;;;;;5.30;99.90;;;;;;5071097;28;20373;-77
2023/02/13 07:34:55;;;;;;;;;;;5.60;99.90;;;;;;5070063;28;19916;-77
2023/02/13 07:37:20;;;;;;;;;;;5.90;99.90;;;;;;5071157;28;19904;-77
2023/02/13 07:39:46;;;;;;;;;;;6.40;99.90;;;;;;5071008;28;19908;-76
2023/02/13 07:42:11;;;;;;;;;;;6.70;99.90;;;;;;5070858;28;19923;-76
2023/02/13 07:44:37;;;;;;;;;;;6.80;99.90;;;;;;5071127;28;19908;-77
2023/02/13 07:47:03;;;;;;;;;;;7.00;99.90;;;;;;5070896;28;19908;-76
2023/02/13 07:49:28;;;;;;;;;;;7.10;99.90;;;;;;5069739;28;19908;-77
2023/02/13 07:51:55;;;;;;;;;;;7.10;99.90;;;;;;5071012;28;20341;-76
2023/02/13 07:54:20;;;;;;;;;;;7.00;99.90;;;;;;5069337;28;19915;-77
2023/02/13 07:56:46;;;;;;;;;;;6.90;99.90;;;;;;5070831;28;20011;-77
2023/02/13 07:59:11;;;;;;;;;;;6.90;99.90;;;;;;5069035;28;20011;-76
2023/02/13 08:01:38;;;;;;;;;;;6.80;99.90;;;;;;5070644;28;19924;-76
2023/02/13 08:04:04;;;;;;;;;;;6.60;99.90;;;;;;5070327;28;20277;-76
2023/02/13 08:06:29;;;;;;;;;;;6.40;99.90;;;;;;5070373;28;19904;-77
2023/02/13 08:11:54;;;;;;;;;;;6.50;99.90;;;;;;5070453;28;19945;-77
2023/02/13 08:14:24;;;;;;;;;;;6.80;99.90;;;;;;5069120;28;20006;-77
2023/02/13 08:16:50;;;;;;;;;;;7.00;99.90;;;;;;5069107;28;19915;-76
2023/02/13 08:19:16;;;;;;;;;;;7.30;99.60;;;;;;5068595;28;19908;-74
2023/02/13 08:21:41;;;;;;;;;;;7.50;98.60;;;;;;5069862;28;19990;-75
2023/02/13 08:24:07;;;;;;;;;;;7.80;95.70;;;;;;5069793;28;19905;-74
2023/02/13 08:26:33;;;;;;;;;;;8.10;93.70;;;;;;5070152;28;19916;-75
2023/02/13 08:28:58;;;;;;;;;;;8.50;91.70;;;;;;5068863;28;19911;-75
2023/02/13 08:31:24;;;;;;;;;;;9.00;88.80;;;;;;5068518;28;19904;-74
2023/02/13 08:33:50;;;;;;;;;;;9.30;80.60;;;;;;5069940;28;20011;-74
2023/02/13 08:36:15;;;;;;;;;;;9.60;83.20;;;;;;5069795;28;19905;-75
2023/02/13 08:38:41;;;;;;;;;;;9.80;82.30;;;;;;5068802;28;19909;-78
2023/02/13 08:41:07;;;;;;;;;;;10.20;75.60;;;;;;5068527;28;20065;-78
2023/02/13 08:43:32;;;;;;;;;;;10.40;70.10;;;;;;5068416;28;19919;-78
2023/02/13 08:45:58;;;;;;;;;;;10.60;73.30;;;;;;5069674;28;19911;-79
2023/02/13 08:48:25;;;;;;;;;;;10.90;68.50;;;;;;5068354;28;19916;-78
2023/02/13 08:50:50;;;;;;;;;;;11.00;70.20;;;;;;5068247;28;19908;-77
2023/02/13 08:53:16;;;;;;;;;;;11.30;65.70;;;;;;5069821;28;19909;-79
2023/02/13 08:55:41;;;;;;;;;;;11.50;63.90;;;;;;5069702;28;20023;-76
2023/02/13 08:58:07;;;;;;;;;;;11.60;65.40;;;;;;5067949;28;19905;-75
2023/02/13 09:00:32;;;;;;;;;;;11.90;62.80;;;;;;5069450;28;20402;-75
2023/02/13 09:03:02;;;;;;;;;;;12.20;59.30;;;;;;5069330;28;20377;-76
2023/02/13 09:05:28;;;;;;;;;;;12.30;59.70;;;;;;5069537;28;19912;-75
2023/02/13 09:07:53;;;;;;;;;;;12.80;55.90;;;;;;5069528;28;19950;-74
2023/02/13 09:10:19;;;;;;;;;;;13.00;55.80;;;;;;5067828;28;19915;-75
2023/02/13 09:12:50;;;;;;;;;;;13.10;55.40;;;;;;5069133;28;19908;-75
2023/02/13 09:15:16;;;;;;;;;;;13.10;55.00;;;;;;5067082;28;20382;-75
2023/02/13 09:17:41;;;;;;;;;;;13.40;54.40;;;;;;5067928;28;19908;-75
2023/02/13 09:20:07;;;;;;;;;;;13.50;53.20;;;;;;5067845;28;19912;-76
2023/02/13 09:22:33;;;;;;;;;;;13.60;52.30;;;;;;5068066;28;20026;-76
2023/02/13 09:25:02;;;;;;;;;;;13.70;51.80;;;;;;5067747;28;19935;-76
2023/02/13 09:27:28;;;;;;;;;;;13.70;52.50;;;;;;5068789;28;19920;-75
2023/02/13 09:29:54;;;;;;;;;;;13.90;51.30;;;;;;5067961;28;19908;-75
2023/02/13 09:32:20;;;;;;;;;;;13.80;50.80;;;;;;5067404;28;20296;-75
2023/02/13 09:34:45;;;;;;;;;;;13.80;50.80;;;;;;5069191;28;19908;-76
2023/02/13 09:37:11;;;;;;;;;;;13.80;50.70;;;;;;5069197;28;19904;-76
2023/02/13 09:39:37;;;;;;;;;;;13.90;50.80;;;;;;5069513;28;19912;-77
2023/02/13 09:42:05;;;;;;;;;;;14.10;50.10;;;;;;5069011;28;19913;-77
2023/02/13 09:44:36;;;;;;;;;;;14.00;50.00;;;;;;5068840;28;19908;-78
2023/02/13 09:47:04;;;;;;;;;;;13.90;49.40;;;;;;5067783;28;19951;-77
2023/02/13 09:49:32;;;;;;;;;;;13.80;49.70;;;;;;5069056;28;19979;-77
2023/02/13 09:51:57;;;;;;;;;;;13.80;50.40;;;;;;5069082;28;20008;-77
2023/02/13 09:54:25;;;;;;;;;;;13.70;49.60;;;;;;5067614;28;20344;-77
2023/02/13 09:56:59;;;;;;;;;;;13.60;48.90;;;;;;5067472;28;19910;-78
2023/02/13 09:59:27;;;;;;;;;;;13.80;47.80;;;;;;5068625;28;19964;-77
2023/02/13 10:01:55;;;;;;;;;;;13.40;47.70;;;;;;5067320;28;20014;-77
2023/02/13 10:04:23;;;;;;;;;;;12.60;49.70;;;;;;5068716;28;19904;-77
2023/02/13 10:06:53;;;;;;;;;;;11.90;50.00;;;;;;5067454;28;19908;-74
2023/02/13 10:09:19;;;;;;;;;;;11.20;50.40;;;;;;5068622;28;19989;-74
2023/02/13 10:11:53;;;;;;;;;;;10.60;54.20;;;;;;5067236;28;20414;-74
2023/02/13 10:14:22;;;;;;;;;;;10.30;56.00;;;;;;5068323;28;19912;-76
2023/02/13 10:16:47;;;;;;;;;;;9.80;56.90;;;;;;5067300;28;19954;-77
2023/02/13 10:19:22;;;;;;;;;;;9.40;58.50;;;;;;5067263;28;19912;-76
2023/02/13 10:21:51;;;;;;;;;;;9.20;60.20;;;;;;5067058;28;19916;-76
2023/02/13 10:24:38;;;;;;;;;;;9.10;60.90;;;;;;5068370;28;19913;-73
2023/02/13 10:27:13;;;;;;;;;;;8.90;63.20;;;;;;5071686;28;19935;-74
2023/02/13 10:32:35;;;;;;;;;;;8.50;66.90;;;;;;5072613;28;20288;-74
2023/02/13 10:35:02;;;;;;;;;;;8.30;68.50;;;;;;5072452;28;20054;-74
2023/02/13 10:37:28;;;;;;;;;;;8.20;65.30;;;;;;5071685;28;19915;-73
2023/02/13 10:39:53;;;;;;;;;;;8.10;66.50;;;;;;5071100;28;19908;-74
2023/02/13 10:42:32;;;;;;;;;;;8.00;68.10;;;;;;5072277;28;20642;-74
2023/02/13 10:44:57;;;;;;;;;;;7.90;66.20;;;;;;5072215;28;19995;-74
2023/02/13 10:47:41;;;;;;;;;;;7.80;67.50;;;;;;5070954;28;20053;-77
2023/02/13 10:50:13;;;;;;;;;;;7.70;68.50;;;;;;5071928;28;19916;-77
2023/02/13 10:52:43;;;;;;;;;;;7.70;72.20;;;;;;5071628;28;19964;-76
2023/02/13 10:55:12;;;;;;;;;;;7.70;67.80;;;;;;5071840;28;19916;-75
2023/02/13 10:57:37;;;;;;;;;;;7.50;71.10;;;;;;5071949;28;19909;-76
2023/02/13 11:00:03;;;;;;;;;;;7.40;68.30;;;;;;5071821;28;19942;-76
2023/02/13 11:02:31;;;;;;;;;;;7.30;72.40;;;;;;5070113;28;19931;-77
2023/02/13 11:05:06;;;;;;;;;;;7.30;70.70;;;;;;5070329;28;20006;-76
2023/02/13 11:07:33;;;;;;;;;;;7.20;73.50;;;;;;5071600;28;20312;-77
2023/02/13 11:10:03;;;;;;;;;;;7.20;72.40;;;;;;5070923;28;19948;-76
2023/02/13 11:12:33;;;;;;;;;;;7.20;75.80;;;;;;5071556;28;19915;-77
2023/02/13 11:15:18;;;;;;;;;;;7.20;77.70;;;;;;5069862;28;19946;-76
2023/02/13 11:17:45;;;;;;;;;;;7.20;80.00;;;;;;5071217;28;19904;-76
2023/02/13 11:20:29;;;;;;;;;;;7.10;81.40;;;;;;5070174;28;20301;-77
2023/02/13 11:22:56;;;;;;;;;;;7.10;87.50;;;;;;5071435;28;20007;-76
2023/02/13 11:25:21;;;;;;;;;;;7.10;88.30;;;;;;5070065;28;19912;-76
2023/02/13 11:27:48;;;;;;;;;;;7.00;89.70;;;;;;5071480;28;19965;-76
2023/02/13 11:30:14;;;;;;;;;;;7.00;87.80;;;;;;5070029;28;19909;-77
2023/02/13 11:32:39;;;;;;;;;;;7.00;87.70;;;;;;5071297;28;19915;-77
2023/02/13 11:35:23;;;;;;;;;;;6.80;85.00;;;;;;5071370;28;19909;-76
2023/02/13 11:38:09;;;;;;;;;;;6.80;91.00;;;;;;5068635;28;19904;-75
2023/02/13 11:40:35;;;;;;;;;;;6.90;92.00;;;;;;5070486;28;20330;-76
2023/02/13 11:43:01;;;;;;;;;;;6.90;91.60;;;;;;5069678;28;19923;-75
2023/02/13 11:45:26;;;;;;;;;;;6.90;93.00;;;;;;5069629;28;19908;-75
2023/02/13 11:47:55;;;;;;;;;;;6.90;91.70;;;;;;5069895;28;19908;-75
2023/02/13 11:50:23;;;;;;;;;;;6.90;91.30;;;;;;5070877;28;19949;-76
2023/02/13 11:53:06;;;;;;;;;;;6.90;92.60;;;;;;5070870;28;19908;-75
2023/02/13 11:55:37;;;;;;;;;;;7.00;93.50;;;;;;5070701;28;20262;-75
2023/02/13 11:58:02;;;;;;;;;;;6.90;92.70;;;;;;5069411;28;19908;-75
2023/02/13 12:00:32;;;;;;;;;;;6.80;93.30;;;;;;5070522;28;19920;-76
2023/02/13 12:02:58;;;;;;;;;;;6.80;93.90;;;;;;5070260;28;19916;-76
2023/02/13 12:05:25;;;;;;;;;;;6.70;95.40;;;;;;5070812;28;20011;-75
2023/02/13 12:07:51;;;;;;;;;;;6.70;95.60;;;;;;5070281;28;19995;-75
2023/02/13 12:10:19;;;;;;;;;;;6.70;97.20;;;;;;5069006;28;19912;-76
2023/02/13 12:13:04;;;;;;;;;;;6.80;97.60;;;;;;5069281;28;20015;-76
2023/02/13 12:15:32;;;;;;;;;;;6.80;97.40;;;;;;5070512;28;19904;-76
2023/02/13 12:18:09;;;;;;;;;;;6.80;96.20;;;;;;5069149;28;19990;-76
2023/02/13 12:20:43;;;;;;;;;;;6.80;97.10;;;;;;5070161;28;19916;-76
2023/02/13 12:23:17;;;;;;;;;;;6.70;97.20;;;;;;5068818;28;19923;-75
2023/02/13 12:25:52;;;;;;;;;;;6.70;97.00;;;;;;5068979;28;20281;-76
2023/02/13 12:28:18;;;;;;;;;;;6.70;96.80;;;;;;5068204;28;20368;-77
2023/02/13 12:30:55;;;;;;;;;;;6.70;97.80;;;;;;5070153;28;20053;-76
2023/02/13 12:33:33;;;;;;;;;;;6.60;98.50;;;;;;5068367;28;19905;-75
2023/02/13 12:36:02;;;;;;;;;;;6.60;99.90;;;;;;5068567;28;20429;-76
2023/02/13 12:38:37;;;;;;;;;;;6.70;99.60;;;;;;5070103;28;20061;-76
2023/02/13 12:41:27;;;;;;;;;;;6.70;99.10;;;;;;5069978;28;19959;-76
2023/02/13 12:43:59;;;;;;;;;;;6.80;98.60;;;;;;5068133;28;19934;-76
2023/02/13 12:46:28;;;;;;;;;;;6.80;99.10;;;;;;5069643;28;19905;-76
2023/02/13 12:48:54;;;;;;;;;;;6.90;97.60;;;;;;5069386;28;19912;-76
2023/02/13 12:51:22;;;;;;;;;;;6.80;97.40;;;;;;5070006;28;19978;-75
2023/02/13 12:54:08;;;;;;;;;;;6.90;98.00;;;;;;5069780;28;20328;-75
2023/02/13 12:56:42;;;;;;;;;;;6.90;98.60;;;;;;5037798;28;19962;-75
2023/02/13 12:59:13;;;;;;;;;;;7.00;98.00;;;;;;5068361;28;19979;-75
2023/02/13 13:01:45;;;;;;;;;;;7.00;98.10;;;;;;5069427;28;19912;-76
2023/02/13 13:04:18;;;;;;;;;;;7.10;97.80;;;;;;5069375;28;19912;-76
2023/02/13 13:07:01;;;;;;;;;;;7.20;97.60;;;;;;5069471;28;19908;-76
2023/02/13 13:09:35;;;;;;;;;;;7.20;97.20;;;;;;5067883;28;19935;-76
2023/02/13 13:12:07;;;;;;;;;;;7.20;96.80;;;;;;5068245;28;19904;-77
2023/02/13 13:14:43;;;;;;;;;;;7.30;96.20;;;;;;5069384;28;19915;-77
2023/02/13 13:17:09;;;;;;;;;;;7.40;97.10;;;;;;5069199;28;19908;-76
2023/02/13 13:19:43;;;;;;;;;;;7.50;97.70;;;;;;5069112;28;20657;-76
2023/02/13 13:22:12;;;;;;;;;;;7.50;96.60;;;;;;5067756;28;19978;-76
2023/02/13 13:24:51;;;;;;;;;;;7.60;97.60;;;;;;5069378;28;19912;-76
2023/02/13 13:27:32;;;;;;;;;;;7.60;97.80;;;;;;5067824;28;19912;-76
2023/02/13 13:30:01;;;;;;;;;;;7.60;97.90;;;;;;5067882;28;19908;-76
2023/02/13 13:32:27;;;;;;;;;;;7.60;97.50;;;;;;5067116;28;19919;-76
2023/02/13 13:34:53;;;;;;;;;;;7.60;97.10;;;;;;5069184;28;19904;-76
2023/02/13 13:37:32;;;;;;;;;;;7.60;97.10;;;;;;5068875;28;19911;-77
2023/02/13 13:40:16;;;;;;;;;;;7.70;97.70;;;;;;5067640;28;19923;-76
2023/02/13 13:42:41;;;;;;;;;;;7.70;98.70;;;;;;5067534;28;19970;-74
2023/02/13 13:45:14;;;;;;;;;;;7.70;98.30;;;;;;5067499;28;20441;-74
2023/02/13 13:47:58;;;;;;;;;;;7.70;97.60;;;;;;5067581;28;19952;-75
2023/02/13 13:50:26;;;;;;;;;;;7.70;98.10;;;;;;5067107;28;19999;-75
2023/02/13 13:53:07;;;;;;;;;;;7.70;98.60;;;;;;5068815;28;19909;-75
2023/02/13 13:55:57;;;;;;;;;;;7.60;97.80;;;;;;5068914;28;20003;-75
2023/02/13 13:58:22;;;;;;;;;;;7.60;98.70;;;;;;5068426;28;20384;-77
2023/02/13 14:01:08;;;;;;;;;;;7.60;99.50;;;;;;5067867;28;19942;-75
2023/02/13 14:03:35;;;;;;;;;;;7.50;99.20;;;;;;5053262;28;19931;-76
2023/02/13 14:06:08;;;;;;;;;;;7.40;99.40;;;;;;5068824;28;19912;-75
2023/02/13 14:08:39;;;;;;;;;;;7.40;99.50;;;;;;5067356;28;20003;-75
2023/02/13 14:11:18;;;;;;;;;;;7.40;99.90;;;;;;5068699;28;19908;-76
2023/02/13 14:13:44;;;;;;;;;;;7.30;99.90;;;;;;5068632;28;19910;-76
2023/02/13 14:16:10;;;;;;;;;;;7.20;99.90;;;;;;5067313;28;19908;-75
2023/02/13 14:18:37;;;;;;;;;;;7.20;99.90;;;;;;5067300;28;19911;-76
2023/02/13 14:21:03;;;;;;;;;;;7.20;99.90;;;;;;5068550;28;19915;-75
2023/02/13 14:23:37;;;;;;;;;;;7.10;99.90;;;;;;5067274;28;19909;-75
2023/02/13 14:26:09;;;;;;;;;;;7.10;99.90;;;;;;5068802;28;19916;-75
2023/02/13 14:28:35;;;;;;;;;;;7.00;99.90;;;;;;5068497;28;20288;-75
2023/02/13 14:31:23;;;;;;;;;;;7.00;99.90;;;;;;5068323;28;19908;-75
2023/02/13 14:34:06;;;;;;;;;;;6.90;99.90;;;;;;5056288;28;19915;-76
2023/02/13 14:36:37;;;;;;;;;;;6.90;99.90;;;;;;5068191;28;19943;-77
2023/02/13 14:39:05;;;;;;;;;;;6.90;99.90;;;;;;5067185;28;20360;-75
2023/02/13 14:41:43;;;;;;;;;;;6.80;99.90;;;;;;5068464;28;20387;-75
2023/02/13 14:44:23;;;;;;;;;;;6.80;99.90;;;;;;5068056;28;19913;-76
2023/02/13 14:46:50;;;;;;;;;;;6.70;99.90;;;;;;5068149;28;19916;-74
2023/02/13 14:49:15;;;;;;;;;;;6.60;99.90;;;;;;5066985;28;20018;-74
2023/02/13 14:51:45;;;;;;;;;;;6.70;99.90;;;;;;5066888;28;20431;-74
2023/02/13 14:54:21;;;;;;;;;;;6.60;99.90;;;;;;5068335;28;19909;-75
2023/02/13 14:56:48;;;;;;;;;;;6.60;99.90;;;;;;5068060;28;19912;-74
2023/02/13 14:59:17;;;;;;;;;;;6.50;99.90;;;;;;5066702;28;20003;-74
2023/02/13 15:01:47;;;;;;;;;;;6.50;99.90;;;;;;5069136;28;20032;-74
2023/02/13 15:04:19;;;;;;;;;;;6.50;99.90;;;;;;5067116;28;19905;-74
2023/02/13 15:06:45;;;;;;;;;;;6.50;99.90;;;;;;5068549;28;19908;-76
2023/02/13 15:09:20;;;;;;;;;;;6.60;99.90;;;;;;5067810;28;19934;-76
2023/02/13 15:11:46;;;;;;;;;;;6.60;99.90;;;;;;5067987;28;20339;-75
2023/02/13 15:14:20;;;;;;;;;;;6.60;99.90;;;;;;5070947;28;19908;-75
2023/02/13 15:16:51;;;;;;;;;;;6.60;99.90;;;;;;5070827;28;19962;-77